Whittier, Alaska
Current Conditions -  °F | °C
As of 2:53 AM on Sunday 23 Nov 2014 (Local Time) from PATO Reporting Station
Overcast Overcast  
Wind Chill: 32°   Ceiling: 3500
Heat Index: 38°   Visibility: 10mi
Dew Point: 36°   Wind: 8mph
Humidity: 93%   Direction: 150°SSE
Pressure: 29.33"   Gusts: NA
Location:  60.77°N, 148.69°W
Report Text: PATO 231153Z AUTO 15007KT 120V180 10SM FEW014 SCT024 OVC035 03/02 A2933 RMK AO2 SLP933 60014 70095 T00330022 10033 20022 51017 TSNO
Loading
Personal Weather Stations






























Interactive Weather Map New forecast layout! Learn more

10-Day Weather Forecast

Advertisements
Track Severe Weather on mobile